sensor_id;sensor_type;location;lat;lon;timestamp;P1;durP1;ratioP1;P2;durP2;ratioP2
35693;SDS011;21812;55.536;37.664;2022-11-15T00:00:08;0.65;;;0.40;;
35693;SDS011;21812;55.536;37.664;2022-11-15T00:02:54;2.05;;;0.60;;
35693;SDS011;21812;55.536;37.664;2022-11-15T00:08:21;2.58;;;0.60;;
35693;SDS011;21812;55.536;37.664;2022-11-15T00:11:06;3.28;;;0.50;;
35693;SDS011;21812;55.536;37.664;2022-11-15T00:16:34;3.67;;;0.45;;
35693;SDS011;21812;55.536;37.664;2022-11-15T00:22:02;4.72;;;0.80;;
35693;SDS011;21812;55.536;37.664;2022-11-15T00:24:46;3.85;;;0.70;;
35693;SDS011;21812;55.536;37.664;2022-11-15T00:30:14;0.32;;;0.30;;
35693;SDS011;21812;55.536;37.664;2022-11-15T00:35:47;1.38;;;0.57;;
35693;SDS011;21812;55.536;37.664;2022-11-15T00:38:31;0.90;;;0.50;;
35693;SDS011;21812;55.536;37.664;2022-11-15T00:41:17;2.38;;;0.30;;
35693;SDS011;21812;55.536;37.664;2022-11-15T00:46:46;6.53;;;0.73;;
35693;SDS011;21812;55.536;37.664;2022-11-15T00:52:14;2.47;;;0.57;;
35693;SDS011;21812;55.536;37.664;2022-11-15T00:54:58;3.80;;;0.60;;
35693;SDS011;21812;55.536;37.664;2022-11-15T00:57:42;0.60;;;0.43;;
35693;SDS011;21812;55.536;37.664;2022-11-15T01:03:10;1.08;;;0.50;;
35693;SDS011;21812;55.536;37.664;2022-11-15T01:05:58;4.28;;;0.98;;
35693;SDS011;21812;55.536;37.664;2022-11-15T01:08:42;2.80;;;0.68;;
35693;SDS011;21812;55.536;37.664;2022-11-15T01:14:10;6.25;;;1.38;;
35693;SDS011;21812;55.536;37.664;2022-11-15T01:19:38;3.70;;;0.82;;
35693;SDS011;21812;55.536;37.664;2022-11-15T01:25:06;1.60;;;0.50;;
35693;SDS011;21812;55.536;37.664;2022-11-15T01:30:35;1.02;;;0.43;;
35693;SDS011;21812;55.536;37.664;2022-11-15T01:33:20;1.98;;;0.60;;
35693;SDS011;21812;55.536;37.664;2022-11-15T01:38:54;5.05;;;1.35;;
35693;SDS011;21812;55.536;37.664;2022-11-15T01:41:39;2.65;;;0.73;;
35693;SDS011;21812;55.536;37.664;2022-11-15T01:47:28;3.17;;;1.35;;
35693;SDS011;21812;55.536;37.664;2022-11-15T01:50:16;4.78;;;0.55;;
35693;SDS011;21812;55.536;37.664;2022-11-15T01:53:04;1.42;;;0.47;;
35693;SDS011;21812;55.536;37.664;2022-11-15T01:55:48;6.93;;;0.93;;
35693;SDS011;21812;55.536;37.664;2022-11-15T01:58:33;1.90;;;0.57;;
35693;SDS011;21812;55.536;37.664;2022-11-15T02:01:19;4.70;;;0.85;;
35693;SDS011;21812;55.536;37.664;2022-11-15T02:07:01;3.47;;;0.85;;
35693;SDS011;21812;55.536;37.664;2022-11-15T02:09:48;4.20;;;0.82;;
35693;SDS011;21812;55.536;37.664;2022-11-15T02:12:34;3.55;;;1.10;;
35693;SDS011;21812;55.536;37.664;2022-11-15T02:15:19;2.47;;;0.63;;
35693;SDS011;21812;55.536;37.664;2022-11-15T02:21:28;2.60;;;0.68;;
35693;SDS011;21812;55.536;37.664;2022-11-15T02:24:25;1.88;;;0.98;;
35693;SDS011;21812;55.536;37.664;2022-11-15T02:31:29;3.33;;;0.35;;
35693;SDS011;21812;55.536;37.664;2022-11-15T02:37:07;5.47;;;1.00;;
35693;SDS011;21812;55.536;37.664;2022-11-15T02:42:55;1.00;;;0.45;;
35693;SDS011;21812;55.536;37.664;2022-11-15T02:46:17;3.35;;;0.95;;
35693;SDS011;21812;55.536;37.664;2022-11-15T02:49:06;3.95;;;0.68;;
35693;SDS011;21812;55.536;37.664;2022-11-15T02:51:50;6.95;;;0.73;;
35693;SDS011;21812;55.536;37.664;2022-11-15T02:54:36;1.98;;;0.75;;
35693;SDS011;21812;55.536;37.664;2022-11-15T03:00:30;4.20;;;0.50;;
35693;SDS011;21812;55.536;37.664;2022-11-15T03:12:57;2.57;;;0.80;;
35693;SDS011;21812;55.536;37.664;2022-11-15T03:18:13;4.43;;;0.80;;
35693;SDS011;21812;55.536;37.664;2022-11-15T03:21:05;7.13;;;1.08;;
35693;SDS011;21812;55.536;37.664;2022-11-15T03:23:53;3.33;;;1.20;;
35693;SDS011;21812;55.536;37.664;2022-11-15T03:26:39;3.83;;;0.60;;
35693;SDS011;21812;55.536;37.664;2022-11-15T03:29:29;1.38;;;0.45;;
35693;SDS011;21812;55.536;37.664;2022-11-15T03:32:25;3.53;;;0.90;;
35693;SDS011;21812;55.536;37.664;2022-11-15T03:35:17;1.50;;;1.07;;
35693;SDS011;21812;55.536;37.664;2022-11-15T03:41:09;3.87;;;0.80;;
35693;SDS011;21812;55.536;37.664;2022-11-15T03:47:09;2.47;;;0.65;;
35693;SDS011;21812;55.536;37.664;2022-11-15T03:50:02;6.23;;;0.60;;
35693;SDS011;21812;55.536;37.664;2022-11-15T03:52:50;1.53;;;0.43;;
35693;SDS011;21812;55.536;37.664;2022-11-15T03:55:37;2.25;;;0.52;;
35693;SDS011;21812;55.536;37.664;2022-11-15T03:58:22;1.58;;;0.70;;
35693;SDS011;21812;55.536;37.664;2022-11-15T04:03:50;3.20;;;0.90;;
35693;SDS011;21812;55.536;37.664;2022-11-15T04:06:34;6.85;;;0.93;;
35693;SDS011;21812;55.536;37.664;2022-11-15T04:12:02;2.87;;;1.10;;
35693;SDS011;21812;55.536;37.664;2022-11-15T04:17:54;3.33;;;0.60;;
35693;SDS011;21812;55.536;37.664;2022-11-15T04:20:40;2.87;;;0.70;;
35693;SDS011;21812;55.536;37.664;2022-11-15T04:23:43;3.60;;;0.70;;
35693;SDS011;21812;55.536;37.664;2022-11-15T04:26:37;6.45;;;0.90;;
35693;SDS011;21812;55.536;37.664;2022-11-15T04:29:21;1.67;;;0.70;;
35693;SDS011;21812;55.536;37.664;2022-11-15T04:32:17;2.33;;;0.80;;
35693;SDS011;21812;55.536;37.664;2022-11-15T04:35:02;4.38;;;0.93;;
35693;SDS011;21812;55.536;37.664;2022-11-15T04:37:46;2.35;;;0.65;;
35693;SDS011;21812;55.536;37.664;2022-11-15T04:40:30;1.08;;;0.57;;
35693;SDS011;21812;55.536;37.664;2022-11-15T04:43:15;2.78;;;1.20;;
35693;SDS011;21812;55.536;37.664;2022-11-15T04:45:59;4.55;;;0.68;;
35693;SDS011;21812;55.536;37.664;2022-11-15T04:48:43;1.90;;;0.80;;
35693;SDS011;21812;55.536;37.664;2022-11-15T04:54:11;1.98;;;0.57;;
35693;SDS011;21812;55.536;37.664;2022-11-15T04:59:39;2.03;;;0.47;;
35693;SDS011;21812;55.536;37.664;2022-11-15T05:05:08;2.40;;;0.40;;
35693;SDS011;21812;55.536;37.664;2022-11-15T05:07:52;3.60;;;0.68;;
35693;SDS011;21812;55.536;37.664;2022-11-15T05:10:36;1.45;;;0.57;;
35693;SDS011;21812;55.536;37.664;2022-11-15T05:16:04;1.17;;;0.50;;
35693;SDS011;21812;55.536;37.664;2022-11-15T05:21:36;1.67;;;0.68;;
35693;SDS011;21812;55.536;37.664;2022-11-15T05:24:20;3.33;;;0.70;;
35693;SDS011;21812;55.536;37.664;2022-11-15T05:27:04;3.97;;;0.95;;
35693;SDS011;21812;55.536;37.664;2022-11-15T05:32:33;3.05;;;0.60;;
35693;SDS011;21812;55.536;37.664;2022-11-15T05:38:20;4.70;;;0.83;;
35693;SDS011;21812;55.536;37.664;2022-11-15T05:41:05;4.10;;;0.97;;
35693;SDS011;21812;55.536;37.664;2022-11-15T05:46:34;1.85;;;0.98;;
35693;SDS011;21812;55.536;37.664;2022-11-15T05:49:22;2.93;;;1.00;;
35693;SDS011;21812;55.536;37.664;2022-11-15T05:52:12;3.27;;;1.10;;
35693;SDS011;21812;55.536;37.664;2022-11-15T05:55:00;3.30;;;0.93;;
35693;SDS011;21812;55.536;37.664;2022-11-15T05:57:48;3.27;;;1.17;;
35693;SDS011;21812;55.536;37.664;2022-11-15T06:03:17;12.02;;;1.60;;
35693;SDS011;21812;55.536;37.664;2022-11-15T06:08:45;4.27;;;1.60;;
35693;SDS011;21812;55.536;37.664;2022-11-15T06:11:29;2.90;;;1.02;;
35693;SDS011;21812;55.536;37.664;2022-11-15T06:14:13;2.08;;;0.98;;
35693;SDS011;21812;55.536;37.664;2022-11-15T06:16:57;6.38;;;1.10;;
35693;SDS011;21812;55.536;37.664;2022-11-15T06:19:41;4.70;;;0.90;;
35693;SDS011;21812;55.536;37.664;2022-11-15T06:22:28;6.23;;;1.43;;
35693;SDS011;21812;55.536;37.664;2022-11-15T06:25:13;8.18;;;1.50;;
35693;SDS011;21812;55.536;37.664;2022-11-15T06:27:57;5.47;;;1.50;;
35693;SDS011;21812;55.536;37.664;2022-11-15T06:30:42;8.80;;;2.08;;
35693;SDS011;21812;55.536;37.664;2022-11-15T06:36:12;6.37;;;1.83;;
35693;SDS011;21812;55.536;37.664;2022-11-15T06:39:00;3.93;;;1.00;;
35693;SDS011;21812;55.536;37.664;2022-11-15T06:41:47;11.60;;;2.03;;
35693;SDS011;21812;55.536;37.664;2022-11-15T06:47:16;6.55;;;1.40;;
35693;SDS011;21812;55.536;37.664;2022-11-15T06:52:44;4.03;;;0.80;;
35693;SDS011;21812;55.536;37.664;2022-11-15T06:55:28;5.22;;;2.25;;
35693;SDS011;21812;55.536;37.664;2022-11-15T06:58:12;6.47;;;2.75;;
35693;SDS011;21812;55.536;37.664;2022-11-15T07:03:51;3.08;;;0.95;;
35693;SDS011;21812;55.536;37.664;2022-11-15T07:09:19;7.22;;;1.50;;
35693;SDS011;21812;55.536;37.664;2022-11-15T07:12:03;4.03;;;1.20;;
35693;SDS011;21812;55.536;37.664;2022-11-15T07:14:48;3.97;;;1.50;;
35693;SDS011;21812;55.536;37.664;2022-11-15T07:20:16;6.40;;;1.03;;
35693;SDS011;21812;55.536;37.664;2022-11-15T07:23:04;3.50;;;1.00;;
35693;SDS011;21812;55.536;37.664;2022-11-15T07:25:49;3.20;;;1.10;;
35693;SDS011;21812;55.536;37.664;2022-11-15T07:28:33;7.95;;;1.17;;
35693;SDS011;21812;55.536;37.664;2022-11-15T07:31:18;8.07;;;1.00;;
35693;SDS011;21812;55.536;37.664;2022-11-15T07:36:46;6.40;;;1.58;;
35693;SDS011;21812;55.536;37.664;2022-11-15T07:42:15;6.43;;;1.55;;
35693;SDS011;21812;55.536;37.664;2022-11-15T07:45:18;5.32;;;1.02;;
35693;SDS011;21812;55.536;37.664;2022-11-15T07:48:09;2.13;;;0.93;;
35693;SDS011;21812;55.536;37.664;2022-11-15T07:50:54;5.03;;;1.13;;
35693;SDS011;21812;55.536;37.664;2022-11-15T07:53:38;4.20;;;1.10;;
35693;SDS011;21812;55.536;37.664;2022-11-15T07:59:05;3.75;;;1.60;;
35693;SDS011;21812;55.536;37.664;2022-11-15T08:04:33;4.28;;;0.90;;
35693;SDS011;21812;55.536;37.664;2022-11-15T08:10:01;5.10;;;1.20;;
35693;SDS011;21812;55.536;37.664;2022-11-15T08:12:47;5.85;;;1.27;;
35693;SDS011;21812;55.536;37.664;2022-11-15T08:15:31;4.75;;;1.27;;
35693;SDS011;21812;55.536;37.664;2022-11-15T08:18:17;10.80;;;2.78;;
35693;SDS011;21812;55.536;37.664;2022-11-15T08:21:04;1.60;;;0.90;;
35693;SDS011;21812;55.536;37.664;2022-11-15T08:26:32;3.65;;;1.05;;
35693;SDS011;21812;55.536;37.664;2022-11-15T08:32:03;8.00;;;1.55;;
35693;SDS011;21812;55.536;37.664;2022-11-15T08:34:48;4.28;;;1.20;;
35693;SDS011;21812;55.536;37.664;2022-11-15T08:37:32;6.47;;;1.35;;
35693;SDS011;21812;55.536;37.664;2022-11-15T08:40:16;6.45;;;1.83;;
35693;SDS011;21812;55.536;37.664;2022-11-15T08:43:02;3.83;;;1.23;;
35693;SDS011;21812;55.536;37.664;2022-11-15T08:45:46;5.35;;;0.98;;
35693;SDS011;21812;55.536;37.664;2022-11-15T08:48:33;4.87;;;1.70;;
35693;SDS011;21812;55.536;37.664;2022-11-15T08:51:18;4.03;;;1.75;;
35693;SDS011;21812;55.536;37.664;2022-11-15T08:56:46;3.95;;;1.08;;
35693;SDS011;21812;55.536;37.664;2022-11-15T08:59:32;5.43;;;1.40;;
35693;SDS011;21812;55.536;37.664;2022-11-15T09:02:16;3.90;;;1.20;;
35693;SDS011;21812;55.536;37.664;2022-11-15T09:05:00;2.08;;;1.25;;
35693;SDS011;21812;55.536;37.664;2022-11-15T09:10:28;5.53;;;0.95;;
35693;SDS011;21812;55.536;37.664;2022-11-15T09:15:58;5.03;;;1.40;;
35693;SDS011;21812;55.536;37.664;2022-11-15T09:18:43;10.27;;;2.78;;
35693;SDS011;21812;55.536;37.664;2022-11-15T09:21:28;5.43;;;1.88;;
35693;SDS011;21812;55.536;37.664;2022-11-15T09:24:12;4.13;;;1.15;;
35693;SDS011;21812;55.536;37.664;2022-11-15T09:29:41;8.18;;;1.50;;
35693;SDS011;21812;55.536;37.664;2022-11-15T09:35:11;5.65;;;1.30;;
35693;SDS011;21812;55.536;37.664;2022-11-15T09:37:57;4.72;;;1.52;;
35693;SDS011;21812;55.536;37.664;2022-11-15T09:40:41;5.60;;;1.60;;
35693;SDS011;21812;55.536;37.664;2022-11-15T09:46:28;2.60;;;1.45;;
35693;SDS011;21812;55.536;37.664;2022-11-15T09:49:25;5.10;;;1.52;;
35693;SDS011;21812;55.536;37.664;2022-11-15T09:52:14;8.77;;;2.35;;
35693;SDS011;21812;55.536;37.664;2022-11-15T09:54:41;5.28;;;1.67;;
35693;SDS011;21812;55.536;37.664;2022-11-15T09:57:12;4.30;;;1.40;;
35693;SDS011;21812;55.536;37.664;2022-11-15T10:12:53;6.53;;;1.65;;
35693;SDS011;21812;55.536;37.664;2022-11-15T10:15:19;7.35;;;3.22;;
35693;SDS011;21812;55.536;37.664;2022-11-15T10:18:07;6.47;;;1.88;;
35693;SDS011;21812;55.536;37.664;2022-11-15T10:20:50;4.28;;;1.88;;
35693;SDS011;21812;55.536;37.664;2022-11-15T10:23:22;5.45;;;1.52;;
35693;SDS011;21812;55.536;37.664;2022-11-15T10:25:50;6.13;;;1.60;;
35693;SDS011;21812;55.536;37.664;2022-11-15T10:28:22;7.35;;;1.67;;
35693;SDS011;21812;55.536;37.664;2022-11-15T10:30:53;8.32;;;1.70;;
35693;SDS011;21812;55.536;37.664;2022-11-15T10:46:28;5.55;;;1.40;;
35693;SDS011;21812;55.536;37.664;2022-11-15T10:48:53;3.83;;;1.58;;
35693;SDS011;21812;55.536;37.664;2022-11-15T10:51:52;6.63;;;1.92;;
35693;SDS011;21812;55.536;37.664;2022-11-15T10:54:40;3.03;;;1.65;;
35693;SDS011;21812;55.536;37.664;2022-11-15T10:57:12;9.50;;;1.60;;
35693;SDS011;21812;55.536;37.664;2022-11-15T10:59:38;5.57;;;1.58;;
35693;SDS011;21812;55.536;37.664;2022-11-15T11:08:23;6.28;;;1.75;;
35693;SDS011;21812;55.536;37.664;2022-11-15T11:10:55;5.50;;;1.63;;
35693;SDS011;21812;55.536;37.664;2022-11-15T11:13:23;15.73;;;2.50;;
35693;SDS011;21812;55.536;37.664;2022-11-15T11:15:58;3.90;;;1.70;;
35693;SDS011;21812;55.536;37.664;2022-11-15T11:18:34;15.77;;;2.00;;
35693;SDS011;21812;55.536;37.664;2022-11-15T11:21:13;3.95;;;1.13;;
35693;SDS011;21812;55.536;37.664;2022-11-15T11:23:58;7.53;;;1.70;;
35693;SDS011;21812;55.536;37.664;2022-11-15T11:29:41;10.27;;;2.05;;
35693;SDS011;21812;55.536;37.664;2022-11-15T11:38:15;5.68;;;1.55;;
35693;SDS011;21812;55.536;37.664;2022-11-15T11:46:16;3.33;;;1.67;;
35693;SDS011;21812;55.536;37.664;2022-11-15T11:48:57;5.47;;;1.58;;
35693;SDS011;21812;55.536;37.664;2022-11-15T11:51:30;3.53;;;1.80;;
35693;SDS011;21812;55.536;37.664;2022-11-15T11:54:22;3.60;;;1.80;;
35693;SDS011;21812;55.536;37.664;2022-11-15T11:56:56;3.67;;;2.15;;
35693;SDS011;21812;55.536;37.664;2022-11-15T12:02:15;4.25;;;1.90;;
35693;SDS011;21812;55.536;37.664;2022-11-15T12:04:50;8.32;;;1.60;;
35693;SDS011;21812;55.536;37.664;2022-11-15T12:07:24;7.72;;;2.20;;
35693;SDS011;21812;55.536;37.664;2022-11-15T12:10:04;3.85;;;1.75;;
35693;SDS011;21812;55.536;37.664;2022-11-15T12:12:56;6.85;;;2.38;;
35693;SDS011;21812;55.536;37.664;2022-11-15T12:15:31;6.28;;;1.55;;
35693;SDS011;21812;55.536;37.664;2022-11-15T12:18:02;5.57;;;1.77;;
35693;SDS011;21812;55.536;37.664;2022-11-15T12:20:33;5.85;;;2.03;;
35693;SDS011;21812;55.536;37.664;2022-11-15T12:23:11;7.45;;;2.30;;
35693;SDS011;21812;55.536;37.664;2022-11-15T12:25:48;6.57;;;2.17;;
35693;SDS011;21812;55.536;37.664;2022-11-15T12:31:20;18.90;;;5.20;;
35693;SDS011;21812;55.536;37.664;2022-11-15T12:33:50;52.88;;;15.63;;
35693;SDS011;21812;55.536;37.664;2022-11-15T12:39:00;54.75;;;16.35;;
35693;SDS011;21812;55.536;37.664;2022-11-15T12:41:29;42.00;;;13.18;;
35693;SDS011;21812;55.536;37.664;2022-11-15T12:43:56;23.10;;;8.07;;
35693;SDS011;21812;55.536;37.664;2022-11-15T13:02:23;7.07;;;1.65;;
35693;SDS011;21812;55.536;37.664;2022-11-15T13:04:52;5.82;;;1.70;;
35693;SDS011;21812;55.536;37.664;2022-11-15T13:17:40;6.70;;;1.83;;
35693;SDS011;21812;55.536;37.664;2022-11-15T13:27:50;9.15;;;2.13;;
35693;SDS011;21812;55.536;37.664;2022-11-15T13:30:23;4.50;;;2.27;;
35693;SDS011;21812;55.536;37.664;2022-11-15T13:32:51;8.60;;;2.80;;
35693;SDS011;21812;55.536;37.664;2022-11-15T13:35:23;8.57;;;2.50;;
35693;SDS011;21812;55.536;37.664;2022-11-15T13:37:52;4.85;;;3.28;;
35693;SDS011;21812;55.536;37.664;2022-11-15T13:40:24;9.00;;;4.20;;
35693;SDS011;21812;55.536;37.664;2022-11-15T13:42:55;8.13;;;2.77;;
35693;SDS011;21812;55.536;37.664;2022-11-15T13:45:22;7.67;;;2.60;;
35693;SDS011;21812;55.536;37.664;2022-11-15T13:47:51;4.47;;;2.20;;
35693;SDS011;21812;55.536;37.664;2022-11-15T13:50:20;8.93;;;2.22;;
35693;SDS011;21812;55.536;37.664;2022-11-15T13:52:49;6.23;;;2.40;;
35693;SDS011;21812;55.536;37.664;2022-11-15T13:55:19;5.13;;;1.90;;
35693;SDS011;21812;55.536;37.664;2022-11-15T13:57:57;6.60;;;2.37;;
35693;SDS011;21812;55.536;37.664;2022-11-15T14:03:16;6.73;;;2.57;;
35693;SDS011;21812;55.536;37.664;2022-11-15T14:08:27;8.77;;;3.38;;
35693;SDS011;21812;55.536;37.664;2022-11-15T14:16:34;9.65;;;2.85;;
35693;SDS011;21812;55.536;37.664;2022-11-15T14:19:02;18.63;;;11.02;;
35693;SDS011;21812;55.536;37.664;2022-11-15T14:21:29;12.50;;;6.25;;
35693;SDS011;21812;55.536;37.664;2022-11-15T14:24:17;13.10;;;5.85;;
35693;SDS011;21812;55.536;37.664;2022-11-15T14:26:44;15.43;;;5.85;;
35693;SDS011;21812;55.536;37.664;2022-11-15T14:29:26;17.58;;;7.82;;
35693;SDS011;21812;55.536;37.664;2022-11-15T14:34:41;13.23;;;6.10;;
35693;SDS011;21812;55.536;37.664;2022-11-15T14:40:03;12.02;;;5.68;;
35693;SDS011;21812;55.536;37.664;2022-11-15T14:42:30;10.55;;;5.10;;
35693;SDS011;21812;55.536;37.664;2022-11-15T14:44:56;16.45;;;6.22;;
35693;SDS011;21812;55.536;37.664;2022-11-15T14:47:22;8.88;;;3.70;;
35693;SDS011;21812;55.536;37.664;2022-11-15T14:49:48;7.63;;;3.42;;
35693;SDS011;21812;55.536;37.664;2022-11-15T14:52:23;7.53;;;3.33;;
35693;SDS011;21812;55.536;37.664;2022-11-15T14:54:55;6.13;;;3.10;;
35693;SDS011;21812;55.536;37.664;2022-11-15T14:57:23;6.53;;;2.53;;
35693;SDS011;21812;55.536;37.664;2022-11-15T14:59:49;7.13;;;2.65;;
35693;SDS011;21812;55.536;37.664;2022-11-15T15:02:16;10.32;;;2.83;;
35693;SDS011;21812;55.536;37.664;2022-11-15T15:04:49;5.53;;;2.67;;
35693;SDS011;21812;55.536;37.664;2022-11-15T15:07:15;4.90;;;2.70;;
35693;SDS011;21812;55.536;37.664;2022-11-15T15:09:42;5.75;;;3.28;;
35693;SDS011;21812;55.536;37.664;2022-11-15T15:12:15;6.20;;;3.40;;
35693;SDS011;21812;55.536;37.664;2022-11-15T15:14:46;9.68;;;3.35;;
35693;SDS011;21812;55.536;37.664;2022-11-15T15:17:13;7.45;;;2.97;;
35693;SDS011;21812;55.536;37.664;2022-11-15T15:19:39;5.32;;;3.08;;
35693;SDS011;21812;55.536;37.664;2022-11-15T15:22:05;5.15;;;2.63;;
35693;SDS011;21812;55.536;37.664;2022-11-15T15:24:31;5.47;;;2.80;;
35693;SDS011;21812;55.536;37.664;2022-11-15T15:26:57;6.97;;;3.53;;
35693;SDS011;21812;55.536;37.664;2022-11-15T15:29:22;5.63;;;2.17;;
35693;SDS011;21812;55.536;37.664;2022-11-15T15:31:48;7.55;;;3.67;;
35693;SDS011;21812;55.536;37.664;2022-11-15T15:34:14;10.32;;;3.55;;
35693;SDS011;21812;55.536;37.664;2022-11-15T15:36:41;12.35;;;3.53;;
35693;SDS011;21812;55.536;37.664;2022-11-15T15:39:08;5.75;;;2.80;;
35693;SDS011;21812;55.536;37.664;2022-11-15T15:41:36;6.20;;;2.88;;
35693;SDS011;21812;55.536;37.664;2022-11-15T15:44:02;7.22;;;2.90;;
35693;SDS011;21812;55.536;37.664;2022-11-15T15:46:27;7.40;;;3.10;;
35693;SDS011;21812;55.536;37.664;2022-11-15T15:48:53;7.43;;;3.55;;
35693;SDS011;21812;55.536;37.664;2022-11-15T15:51:21;8.93;;;3.72;;
35693;SDS011;21812;55.536;37.664;2022-11-15T15:53:47;7.93;;;3.58;;
35693;SDS011;21812;55.536;37.664;2022-11-15T15:56:13;10.52;;;3.72;;
35693;SDS011;21812;55.536;37.664;2022-11-15T15:58:39;5.93;;;3.83;;
35693;SDS011;21812;55.536;37.664;2022-11-15T16:01:05;5.22;;;2.72;;
35693;SDS011;21812;55.536;37.664;2022-11-15T16:03:30;4.63;;;2.42;;
35693;SDS011;21812;55.536;37.664;2022-11-15T16:05:56;7.40;;;3.03;;
35693;SDS011;21812;55.536;37.664;2022-11-15T16:08:23;14.88;;;2.90;;
35693;SDS011;21812;55.536;37.664;2022-11-15T16:10:51;6.93;;;3.20;;
35693;SDS011;21812;55.536;37.664;2022-11-15T16:13:17;8.80;;;3.22;;
35693;SDS011;21812;55.536;37.664;2022-11-15T16:15:43;6.57;;;2.92;;
35693;SDS011;21812;55.536;37.664;2022-11-15T16:18:14;8.80;;;4.00;;
35693;SDS011;21812;55.536;37.664;2022-11-15T16:20:42;8.38;;;3.88;;
35693;SDS011;21812;55.536;37.664;2022-11-15T16:23:10;10.88;;;4.35;;
35693;SDS011;21812;55.536;37.664;2022-11-15T16:25:44;13.07;;;5.75;;
35693;SDS011;21812;55.536;37.664;2022-11-15T16:28:25;9.93;;;4.07;;
35693;SDS011;21812;55.536;37.664;2022-11-15T16:31:02;8.30;;;3.35;;
35693;SDS011;21812;55.536;37.664;2022-11-15T16:33:34;8.57;;;3.70;;
35693;SDS011;21812;55.536;37.664;2022-11-15T16:36:00;7.78;;;3.25;;
35693;SDS011;21812;55.536;37.664;2022-11-15T16:38:25;13.45;;;3.90;;
35693;SDS011;21812;55.536;37.664;2022-11-15T16:40:51;9.90;;;4.00;;
35693;SDS011;21812;55.536;37.664;2022-11-15T16:43:17;7.53;;;3.75;;
35693;SDS011;21812;55.536;37.664;2022-11-15T16:45:42;10.63;;;5.25;;
35693;SDS011;21812;55.536;37.664;2022-11-15T16:48:19;5.70;;;3.15;;
35693;SDS011;21812;55.536;37.664;2022-11-15T16:50:47;8.27;;;3.50;;
35693;SDS011;21812;55.536;37.664;2022-11-15T16:53:13;9.48;;;3.85;;
35693;SDS011;21812;55.536;37.664;2022-11-15T16:55:38;8.10;;;4.38;;
35693;SDS011;21812;55.536;37.664;2022-11-15T16:58:04;8.68;;;3.20;;
35693;SDS011;21812;55.536;37.664;2022-11-15T17:00:29;7.20;;;3.80;;
35693;SDS011;21812;55.536;37.664;2022-11-15T17:02:56;7.22;;;2.97;;
35693;SDS011;21812;55.536;37.664;2022-11-15T17:05:22;9.30;;;3.30;;
35693;SDS011;21812;55.536;37.664;2022-11-15T17:07:51;7.05;;;3.65;;
35693;SDS011;21812;55.536;37.664;2022-11-15T17:10:18;6.22;;;2.75;;
35693;SDS011;21812;55.536;37.664;2022-11-15T17:12:48;7.47;;;2.90;;
35693;SDS011;21812;55.536;37.664;2022-11-15T17:15:14;7.07;;;3.15;;
35693;SDS011;21812;55.536;37.664;2022-11-15T17:17:40;3.30;;;2.13;;
35693;SDS011;21812;55.536;37.664;2022-11-15T17:20:08;9.40;;;3.05;;
35693;SDS011;21812;55.536;37.664;2022-11-15T17:22:41;6.30;;;3.25;;
35693;SDS011;21812;55.536;37.664;2022-11-15T17:25:07;5.85;;;2.47;;
35693;SDS011;21812;55.536;37.664;2022-11-15T17:27:33;4.93;;;2.47;;
35693;SDS011;21812;55.536;37.664;2022-11-15T17:29:58;6.32;;;3.28;;
35693;SDS011;21812;55.536;37.664;2022-11-15T17:32:24;7.55;;;3.20;;
35693;SDS011;21812;55.536;37.664;2022-11-15T17:34:49;5.40;;;2.65;;
35693;SDS011;21812;55.536;37.664;2022-11-15T17:37:15;8.43;;;3.78;;
35693;SDS011;21812;55.536;37.664;2022-11-15T17:39:40;7.20;;;3.38;;
35693;SDS011;21812;55.536;37.664;2022-11-15T17:42:06;5.15;;;2.70;;
35693;SDS011;21812;55.536;37.664;2022-11-15T17:44:32;5.22;;;2.88;;
35693;SDS011;21812;55.536;37.664;2022-11-15T17:46:57;8.48;;;3.22;;
35693;SDS011;21812;55.536;37.664;2022-11-15T17:49:23;7.97;;;4.05;;
35693;SDS011;21812;55.536;37.664;2022-11-15T17:51:49;5.72;;;3.35;;
35693;SDS011;21812;55.536;37.664;2022-11-15T17:54:14;4.85;;;3.03;;
35693;SDS011;21812;55.536;37.664;2022-11-15T17:56:40;6.00;;;3.83;;
35693;SDS011;21812;55.536;37.664;2022-11-15T17:59:06;7.38;;;3.75;;
35693;SDS011;21812;55.536;37.664;2022-11-15T18:01:33;5.95;;;3.55;;
35693;SDS011;21812;55.536;37.664;2022-11-15T18:04:01;5.28;;;3.60;;
35693;SDS011;21812;55.536;37.664;2022-11-15T18:06:28;7.57;;;4.32;;
35693;SDS011;21812;55.536;37.664;2022-11-15T18:08:56;11.07;;;4.38;;
35693;SDS011;21812;55.536;37.664;2022-11-15T18:13:50;9.05;;;4.38;;
35693;SDS011;21812;55.536;37.664;2022-11-15T18:16:19;8.30;;;4.45;;
35693;SDS011;21812;55.536;37.664;2022-11-15T18:18:46;6.85;;;4.05;;
35693;SDS011;21812;55.536;37.664;2022-11-15T18:21:13;7.65;;;4.18;;
35693;SDS011;21812;55.536;37.664;2022-11-15T18:23:41;8.05;;;4.38;;
35693;SDS011;21812;55.536;37.664;2022-11-15T18:26:09;7.72;;;4.20;;
35693;SDS011;21812;55.536;37.664;2022-11-15T18:28:37;9.82;;;4.88;;
35693;SDS011;21812;55.536;37.664;2022-11-15T18:31:11;10.80;;;4.43;;
35693;SDS011;21812;55.536;37.664;2022-11-15T18:33:37;10.55;;;5.13;;
35693;SDS011;21812;55.536;37.664;2022-11-15T18:36:04;7.15;;;4.22;;
35693;SDS011;21812;55.536;37.664;2022-11-15T18:38:32;21.80;;;11.15;;
35693;SDS011;21812;55.536;37.664;2022-11-15T18:43:45;7.28;;;4.57;;
35693;SDS011;21812;55.536;37.664;2022-11-15T18:46:16;8.30;;;4.30;;
35693;SDS011;21812;55.536;37.664;2022-11-15T18:48:45;8.18;;;3.88;;
35693;SDS011;21812;55.536;37.664;2022-11-15T18:51:12;7.57;;;3.83;;
35693;SDS011;21812;55.536;37.664;2022-11-15T18:53:40;23.88;;;4.43;;
35693;SDS011;21812;55.536;37.664;2022-11-15T18:56:07;8.23;;;4.15;;
35693;SDS011;21812;55.536;37.664;2022-11-15T18:58:37;7.05;;;3.63;;
35693;SDS011;21812;55.536;37.664;2022-11-15T19:01:05;6.53;;;4.03;;
35693;SDS011;21812;55.536;37.664;2022-11-15T19:03:34;6.70;;;3.33;;
35693;SDS011;21812;55.536;37.664;2022-11-15T19:06:02;10.07;;;4.25;;
35693;SDS011;21812;55.536;37.664;2022-11-15T19:08:30;7.70;;;3.97;;
35693;SDS011;21812;55.536;37.664;2022-11-15T19:11:02;8.38;;;4.07;;
35693;SDS011;21812;55.536;37.664;2022-11-15T19:13:32;7.18;;;3.67;;
35693;SDS011;21812;55.536;37.664;2022-11-15T19:15:58;6.35;;;3.53;;
35693;SDS011;21812;55.536;37.664;2022-11-15T19:18:25;7.70;;;3.70;;
35693;SDS011;21812;55.536;37.664;2022-11-15T19:20:51;9.20;;;4.40;;
35693;SDS011;21812;55.536;37.664;2022-11-15T19:23:19;8.15;;;3.33;;
35693;SDS011;21812;55.536;37.664;2022-11-15T19:25:57;6.32;;;3.40;;
35693;SDS011;21812;55.536;37.664;2022-11-15T19:28:25;5.22;;;2.95;;
35693;SDS011;21812;55.536;37.664;2022-11-15T19:30:51;7.55;;;3.85;;
35693;SDS011;21812;55.536;37.664;2022-11-15T19:33:17;7.40;;;3.40;;
35693;SDS011;21812;55.536;37.664;2022-11-15T19:35:43;7.50;;;3.97;;
35693;SDS011;21812;55.536;37.664;2022-11-15T19:38:09;5.55;;;3.60;;
35693;SDS011;21812;55.536;37.664;2022-11-15T19:40:35;7.55;;;3.90;;
35693;SDS011;21812;55.536;37.664;2022-11-15T19:43:01;4.35;;;3.15;;
35693;SDS011;21812;55.536;37.664;2022-11-15T19:45:26;3.90;;;2.72;;
35693;SDS011;21812;55.536;37.664;2022-11-15T19:47:52;7.50;;;3.67;;
35693;SDS011;21812;55.536;37.664;2022-11-15T19:50:17;9.88;;;3.85;;
35693;SDS011;21812;55.536;37.664;2022-11-15T19:52:43;8.85;;;3.70;;
35693;SDS011;21812;55.536;37.664;2022-11-15T19:55:09;9.45;;;3.20;;
35693;SDS011;21812;55.536;37.664;2022-11-15T19:57:35;9.95;;;4.03;;
35693;SDS011;21812;55.536;37.664;2022-11-15T20:00:01;9.55;;;3.85;;
35693;SDS011;21812;55.536;37.664;2022-11-15T20:02:30;6.25;;;2.95;;
35693;SDS011;21812;55.536;37.664;2022-11-15T20:04:56;5.60;;;2.85;;